Time;durP1;ratioP1;P1;durP2;ratioP2;P2;SDS_P1;SDS_P2;PMS_P1;PMS_P2;Temp;Humidity;BMP_temperature;BMP_pressure;BME280_temperature;BME280_humidity;BME280_pressure;Samples;Min_cycle;Max_cycle;Signal;HPM_P1;HPM_P2
2022/07/01 00:00:06;;;;;;;;;;;;;;;-140.72;100.00;52480.16;5016879;28;19921;-70
2022/07/01 00:02:32;;;;;;;;;;;;;;;-140.72;100.00;52443.63;5030197;28;20357;-71
2022/07/01 00:04:59;;;;;;;;;;;;;;;-140.72;100.00;52496.38;5030704;28;20289;-70
2022/07/01 00:07:24;;;;;;;;;;;;;;;-140.72;100.00;52474.06;5026553;28;19922;-71
2022/07/01 00:09:49;;;;;;;;;;;;;;;-140.72;100.00;52508.56;5026953;28;19917;-70
2022/07/01 00:12:15;;;;;;;;;;;;;;;-140.72;100.00;52488.25;5018932;28;19925;-70
2022/07/01 00:14:41;;;;;;;;;;;;;;;-140.72;100.00;52461.88;5016379;28;19945;-70
2022/07/01 00:17:07;;;;;;;;;;;;;;;-140.72;100.00;52480.16;5024870;28;19989;-70
2022/07/01 00:19:32;;;;;;;;;;;;;;;-140.72;100.00;52451.72;5023888;28;19924;-71
2022/07/01 00:21:57;;;;;;;;;;;;;;;-140.72;100.00;52459.84;5024227;28;20306;-71
2022/07/01 00:24:22;;;;;;;;;;;;;;;-140.72;100.00;52455.78;5021129;28;20375;-70
2022/07/01 00:26:48;;;;;;;;;;;;;;;-140.72;100.00;52524.78;5020590;28;19926;-70
2022/07/01 00:29:13;;;;;;;;;;;;;;;-140.72;100.00;52486.22;5024688;28;19921;-70
2022/07/01 00:31:38;;;;;;;;;;;;;;;-140.72;100.00;52455.78;5024650;28;20285;-71
2022/07/01 00:34:06;;;;;;;;;;;;;;;-140.72;100.00;52504.50;5023611;28;20147;-71
2022/07/01 00:36:31;;;;;;;;;;;;;;;-140.72;100.00;52516.66;5023952;28;19963;-71
2022/07/01 00:39:00;;;;;;;;;;;;;;;-140.72;100.00;52496.38;5025321;28;19965;-70
2022/07/01 00:41:26;;;;;;;;;;;;;;;-140.72;100.00;52488.25;5023950;28;19981;-71
2022/07/01 00:43:52;;;;;;;;;;;;;;;-140.72;100.00;52504.50;5023551;28;19921;-70
2022/07/01 00:46:18;;;;;;;;;;;;;;;-140.72;100.00;52512.59;5021346;28;19917;-70
2022/07/01 00:48:43;;;;;;;;;;;;;;;-140.72;100.00;52512.59;5025111;28;19975;-71
2022/07/01 00:51:08;;;;;;;;;;;;;;;-140.72;100.00;52476.09;5025077;28;19943;-70
2022/07/01 00:53:34;;;;;;;;;;;;;;;-140.72;100.00;52510.59;5016185;28;19922;-71
2022/07/01 00:55:59;;;;;;;;;;;;;;;-140.72;100.00;52476.09;5026303;28;19928;-70
2022/07/01 00:58:30;;;;;;;;;;;;;;;-140.72;100.00;52498.41;5022246;28;19918;-70
2022/07/01 01:00:56;;;;;;;;;;;;;;;-140.72;100.00;52490.28;5020346;28;19917;-70
2022/07/01 01:03:22;;;;;;;;;;;;;;;-140.72;100.00;52459.84;5025034;28;21374;-70
2022/07/01 01:05:48;;;;;;;;;;;;;;;-140.72;100.00;52500.44;5024331;28;19926;-70
2022/07/01 01:08:14;;;;;;;;;;;;;;;-140.72;100.00;52484.19;5026396;28;19926;-73
2022/07/01 01:10:39;;;;;;;;;;;;;;;-140.72;100.00;52496.38;5029404;28;20027;-70
2022/07/01 01:13:04;;;;;;;;;;;;;;;-140.72;100.00;52524.78;5012201;28;19917;-70
2022/07/01 01:15:30;;;;;;;;;;;;;;;-140.72;100.00;52465.94;5021890;28;19918;-70
2022/07/01 01:17:55;;;;;;;;;;;;;;;-140.72;100.00;52536.97;5021730;28;19922;-70
2022/07/01 01:20:21;;;;;;;;;;;;;;;-140.72;100.00;52465.94;5022025;28;19949;-70
2022/07/01 01:22:49;;;;;;;;;;;;;;;-140.72;100.00;52502.47;5026958;28;19924;-70
2022/07/01 01:25:17;;;;;;;;;;;;;;;-140.72;100.00;52500.44;5028031;28;19928;-71
2022/07/01 01:27:42;;;;;;;;;;;;;;;-140.72;100.00;52526.81;5030007;28;20278;-71
2022/07/01 01:30:09;;;;;;;;;;;;;;;-140.72;100.00;52500.44;5030419;28;19933;-70
2022/07/01 01:32:34;;;;;;;;;;;;;;;-140.72;100.00;52524.78;5029384;28;19956;-71
2022/07/01 01:35:00;;;;;;;;;;;;;;;-140.72;100.00;52512.59;5022460;28;19918;-70
2022/07/01 01:37:26;;;;;;;;;;;;;;;-140.72;100.00;52547.09;5015972;28;19922;-71
2022/07/01 01:39:51;;;;;;;;;;;;;;;-140.72;100.00;52500.44;5014961;28;19918;-71
2022/07/01 01:42:16;;;;;;;;;;;;;;;-140.72;100.00;52536.97;5013031;28;20370;-71
2022/07/01 01:44:43;;;;;;;;;;;;;;;-140.72;100.00;52555.22;5026487;28;19921;-71
2022/07/01 01:47:08;;;;;;;;;;;;;;;-140.72;100.00;52516.66;5025770;28;20001;-71
2022/07/01 01:49:34;;;;;;;;;;;;;;;-140.72;100.00;52474.06;5018687;28;19917;-70
2022/07/01 01:52:00;;;;;;;;;;;;;;;-140.72;100.00;52512.59;5027961;28;20047;-71
2022/07/01 01:54:26;;;;;;;;;;;;;;;-140.72;100.00;52514.63;5027580;28;19951;-70
2022/07/01 01:56:51;;;;;;;;;;;;;;;-140.72;100.00;52547.09;5025958;28;19917;-70
2022/07/01 01:59:16;;;;;;;;;;;;;;;-140.72;100.00;52522.75;5027789;28;19917;-70
2022/07/01 02:01:41;;;;;;;;;;;;;;;-140.72;100.00;52482.16;5021210;28;19918;-71
2022/07/01 02:04:06;;;;;;;;;;;;;;;-140.72;100.00;52500.44;5028276;28;19924;-70
2022/07/01 02:06:32;;;;;;;;;;;;;;;-140.72;100.00;52490.28;5026001;28;19917;-71
2022/07/01 02:08:57;;;;;;;;;;;;;;;-140.72;100.00;52536.97;5008708;28;19976;-70
2022/07/01 02:11:22;;;;;;;;;;;;;;;-140.72;100.00;52506.53;5010250;28;20020;-71
2022/07/01 02:13:56;;;;;;;;;;;;;;;-140.72;100.00;52549.13;5025784;28;20271;-70
2022/07/01 02:16:22;;;;;;;;;;;;;;;-140.72;100.00;52480.16;5020319;28;19913;-70
2022/07/01 02:18:48;;;;;;;;;;;;;;;-140.72;100.00;52490.28;5024372;28;19985;-70
2022/07/01 02:21:14;;;;;;;;;;;;;;;-140.72;100.00;52539.00;5008703;28;19918;-69
2022/07/01 02:23:40;;;;;;;;;;;;;;;-140.72;100.00;52524.78;5024295;28;19917;-70
2022/07/01 02:26:05;;;;;;;;;;;;;;;-140.72;100.00;52545.06;5028276;28;19936;-70
2022/07/01 02:28:30;;;;;;;;;;;;;;;-140.72;100.00;52514.63;5027727;28;20375;-70
2022/07/01 02:30:56;;;;;;;;;;;;;;;-140.72;100.00;52516.66;5015162;28;19918;-70
2022/07/01 02:33:21;;;;;;;;;;;;;;;-140.72;100.00;52488.25;5040850;22;19913;-70
2022/07/01 02:35:48;;;;;;;;;;;;;;;-140.72;100.00;52536.97;5030010;28;19932;-68
2022/07/01 02:38:13;;;;;;;;;;;;;;;-140.72;100.00;52506.53;5032577;28;19949;-68
2022/07/01 02:40:39;;;;;;;;;;;;;;;-140.72;100.00;52496.38;5035118;28;19905;-67
2022/07/01 02:43:05;;;;;;;;;;;;;;;-140.72;100.00;52526.81;5027789;28;19933;-68
2022/07/01 02:45:30;;;;;;;;;;;;;;;-140.72;100.00;52506.53;5036183;28;19918;-69
2022/07/01 02:47:56;;;;;;;;;;;;;;;-140.72;100.00;52498.41;5027740;28;19951;-69
2022/07/01 02:50:21;;;;;;;;;;;;;;;-140.72;100.00;52504.50;5036351;28;19917;-68
2022/07/01 02:52:46;;;;;;;;;;;;;;;-140.72;100.00;52534.94;5036745;28;19929;-68
2022/07/01 02:55:12;;;;;;;;;;;;;;;-140.72;100.00;52500.44;5051796;28;19931;-68
2022/07/01 02:57:38;;;;;;;;;;;;;;;-140.72;100.00;52530.88;5035192;28;19944;-68
2022/07/01 03:00:05;;;;;;;;;;;;;;;-140.72;100.00;52532.91;5029582;28;19905;-67
2022/07/01 03:02:31;;;;;;;;;;;;;;;-140.72;100.00;52526.81;5029910;28;19918;-69
2022/07/01 03:04:56;;;;;;;;;;;;;;;-140.72;100.00;52528.84;5016395;28;19922;-70
2022/07/01 03:07:21;;;;;;;;;;;;;;;-140.72;100.00;52524.78;5016846;28;19921;-67
2022/07/01 03:09:47;;;;;;;;;;;;;;;-140.72;100.00;52532.91;5033182;28;20075;-69
2022/07/01 03:12:25;;;;;;;;;;;;;;;-140.72;100.00;52494.34;5028954;28;19905;-68
2022/07/01 03:15:03;;;;;;;;;;;;;;;-140.72;100.00;52508.56;5029201;28;19979;-68
2022/07/01 03:17:29;;;;;;;;;;;;;;;-140.72;100.00;52512.59;5029429;28;19976;-68
2022/07/01 03:19:55;;;;;;;;;;;;;;;-140.72;100.00;52551.16;5040902;28;19905;-67
2022/07/01 03:22:21;;;;;;;;;;;;;;;-140.72;100.00;52532.91;5029995;28;19917;-69
2022/07/01 03:24:50;;;;;;;;;;;;;;;-140.72;100.00;52539.00;5033736;28;19924;-68
2022/07/01 03:27:15;;;;;;;;;;;;;;;-140.72;100.00;52514.63;5031614;28;19906;-68
2022/07/01 03:29:41;;;;;;;;;;;;;;;-140.72;100.00;52532.91;5032870;28;19924;-67
2022/07/01 03:32:08;;;;;;;;;;;;;;;-140.72;100.00;52551.16;5034941;28;19905;-68
2022/07/01 03:34:34;;;;;;;;;;;;;;;-140.72;100.00;52488.25;5035646;28;20009;-67
2022/07/01 03:36:59;;;;;;;;;;;;;;;-140.72;100.00;52530.88;5035004;28;19926;-68
2022/07/01 03:39:24;;;;;;;;;;;;;;;-140.72;100.00;52520.72;5034977;28;19918;-68
2022/07/01 03:41:49;;;;;;;;;;;;;;;-140.72;100.00;52549.13;5030833;28;19969;-67
2022/07/01 03:44:14;;;;;;;;;;;;;;;-140.72;100.00;52522.75;5019647;28;19917;-69
2022/07/01 03:46:40;;;;;;;;;;;;;;;-140.72;100.00;52534.94;5028033;28;19918;-68
2022/07/01 03:49:05;;;;;;;;;;;;;;;-140.72;100.00;52536.97;5031095;28;19968;-70
2022/07/01 03:51:30;;;;;;;;;;;;;;;-140.72;100.00;52530.88;5018461;28;19964;-68
2022/07/01 03:56:39;;;;;;;;;;;;;;;-140.72;100.00;52532.91;5025136;28;19967;-68
2022/07/01 03:59:05;;;;;;;;;;;;;;;-140.72;100.00;52553.19;5034540;28;19905;-69
2022/07/01 04:01:30;;;;;;;;;;;;;;;-140.72;100.00;52561.31;5027470;28;19922;-68
2022/07/01 04:03:55;;;;;;;;;;;;;;;-140.72;100.00;52512.59;5022375;28;19960;-68
2022/07/01 04:06:20;;;;;;;;;;;;;;;-140.72;100.00;52494.34;5027675;28;19913;-68
2022/07/01 04:08:47;;;;;;;;;;;;;;;-140.72;100.00;52553.19;5031995;28;19918;-67
2022/07/01 04:11:13;;;;;;;;;;;;;;;-140.72;100.00;52514.63;5027058;28;19929;-67
2022/07/01 04:13:38;;;;;;;;;;;;;;;-140.72;100.00;52565.38;5034598;28;20016;-69
2022/07/01 04:16:04;;;;;;;;;;;;;;;-140.72;100.00;52539.00;5037977;28;19944;-68
2022/07/01 04:18:29;;;;;;;;;;;;;;;-140.72;100.00;52553.19;5024819;28;19921;-68
2022/07/01 04:23:38;;;;;;;;;;;;;;;-140.72;100.00;52528.84;5034181;28;20049;-69
2022/07/01 04:26:04;;;;;;;;;;;;;;;-140.72;100.00;52510.59;5034921;28;19909;-69
2022/07/01 04:28:29;;;;;;;;;;;;;;;-140.72;100.00;52526.81;5035290;28;19948;-68
2022/07/01 04:30:54;;;;;;;;;;;;;;;-140.72;100.00;52532.91;5032187;28;19929;-69
2022/07/01 04:33:19;;;;;;;;;;;;;;;-140.72;100.00;52520.72;5027816;28;19952;-69
2022/07/01 04:35:45;;;;;;;;;;;;;;;-140.72;100.00;52514.63;5029006;28;19921;-69
2022/07/01 04:38:10;;;;;;;;;;;;;;;-140.72;100.00;52530.88;5021536;28;19956;-68
2022/07/01 04:40:35;;;;;;;;;;;;;;;-140.72;100.00;52524.78;5014355;28;19980;-73
2022/07/01 04:43:00;;;;;;;;;;;;;;;-140.72;100.00;52508.56;5014626;28;19984;-73
2022/07/01 04:45:25;;;;;;;;;;;;;;;-140.72;100.00;52500.44;5011578;28;19956;-72
2022/07/01 04:47:51;;;;;;;;;;;;;;;-140.72;100.00;52524.78;5012729;28;19922;-72
2022/07/01 04:50:16;;;;;;;;;;;;;;;-140.72;100.00;52496.38;5000219;28;19921;-71
2022/07/01 04:52:41;;;;;;;;;;;;;;;-140.72;100.00;52516.66;5007320;28;20384;-73
2022/07/01 04:55:07;;;;;;;;;;;;;;;-140.72;100.00;52504.50;5006898;28;19970;-76
2022/07/01 04:57:32;;;;;;;;;;;;;;;-140.72;100.00;52563.34;4999210;28;19921;-71
2022/07/01 04:59:57;;;;;;;;;;;;;;;-140.72;100.00;52539.00;5018593;28;19922;-73
2022/07/01 05:02:22;;;;;;;;;;;;;;;-140.72;100.00;52492.31;5005743;28;19968;-75
2022/07/01 05:04:47;;;;;;;;;;;;;;;-140.72;100.00;52551.16;4998567;28;20864;-72
2022/07/01 05:07:27;;;;;;;;;;;;;;;-140.72;100.00;52502.47;5016861;28;20375;-73
2022/07/01 05:09:53;;;;;;;;;;;;;;;-140.72;100.00;52543.03;5007854;28;19921;-74
2022/07/01 05:12:18;;;;;;;;;;;;;;;-140.72;100.00;52492.31;5002956;28;20329;-72
2022/07/01 05:14:44;;;;;;;;;;;;;;;-140.72;100.00;52496.38;5005927;28;20414;-74
2022/07/01 05:17:12;;;;;;;;;;;;;;;-140.72;100.00;52526.81;4993028;28;19953;-73
2022/07/01 05:22:21;;;;;;;;;;;;;;;-140.72;100.00;52500.44;5015379;28;19924;-72
2022/07/01 05:24:46;;;;;;;;;;;;;;;-140.72;100.00;52543.03;5013208;28;19956;-74
2022/07/01 05:27:11;;;;;;;;;;;;;;;-140.72;100.00;52506.53;5015113;28;19937;-72
2022/07/01 05:29:37;;;;;;;;;;;;;;;-140.72;100.00;52516.66;5011804;28;19959;-70
2022/07/01 05:32:02;;;;;;;;;;;;;;;-140.72;100.00;52496.38;5002573;28;19929;-73
2022/07/01 05:34:27;;;;;;;;;;;;;;;-140.72;100.00;52514.63;5001975;28;19929;-70
2022/07/01 05:36:53;;;;;;;;;;;;;;;-140.72;100.00;52524.78;5030712;28;19945;-69
2022/07/01 05:39:18;;;;;;;;;;;;;;;-140.72;100.00;52500.44;5031008;28;20007;-69
2022/07/01 05:41:43;;;;;;;;;;;;;;;-140.72;100.00;52502.47;5031683;28;20072;-67
2022/07/01 05:44:08;;;;;;;;;;;;;;;-140.72;100.00;52512.59;5030437;28;19918;-69
2022/07/01 05:46:34;;;;;;;;;;;;;;;-140.72;100.00;52516.66;5026196;28;19922;-69
2022/07/01 05:48:59;;;;;;;;;;;;;;;-140.72;100.00;52504.50;5026745;28;19953;-69
2022/07/01 05:51:24;;;;;;;;;;;;;;;-140.72;100.00;52498.41;5029278;28;19981;-69
2022/07/01 05:53:50;;;;;;;;;;;;;;;-140.72;100.00;52518.69;5027618;28;19921;-68
2022/07/01 05:56:15;;;;;;;;;;;;;;;-140.72;100.00;52492.31;5036548;28;19921;-69
2022/07/01 05:58:40;;;;;;;;;;;;;;;-140.72;100.00;52532.91;5036176;28;19921;-69
2022/07/01 06:01:06;;;;;;;;;;;;;;;-140.72;100.00;52506.53;5043059;28;19949;-70
2022/07/01 06:03:31;;;;;;;;;;;;;;;-140.72;100.00;52488.25;5033391;28;19921;-75
2022/07/01 06:05:56;;;;;;;;;;;;;;;-140.72;100.00;52492.31;5027077;28;19929;-69
2022/07/01 06:08:21;;;;;;;;;;;;;;;-140.72;100.00;52492.31;5017249;28;19918;-67
2022/07/01 06:10:47;;;;;;;;;;;;;;;-140.72;100.00;52543.03;5017501;28;19972;-69
2022/07/01 06:13:12;;;;;;;;;;;;;;;-140.72;100.00;52536.97;5020588;28;20275;-69
2022/07/01 06:15:38;;;;;;;;;;;;;;;-140.72;100.00;52472.03;5015600;28;19922;-69
2022/07/01 06:18:04;;;;;;;;;;;;;;;-140.72;100.00;52504.50;5022493;28;19926;-70
2022/07/01 06:20:29;;;;;;;;;;;;;;;-140.72;100.00;52508.56;5025230;28;19918;-70
2022/07/01 06:22:54;;;;;;;;;;;;;;;-140.72;100.00;52467.97;5026069;28;19917;-70
2022/07/01 06:25:19;;;;;;;;;;;;;;;-140.72;100.00;52508.56;5019464;28;19949;-70
2022/07/01 06:27:45;;;;;;;;;;;;;;;-140.72;100.00;52476.09;5022270;28;19917;-71
2022/07/01 06:30:11;;;;;;;;;;;;;;;-140.72;100.00;52474.06;5024015;28;19925;-70
2022/07/01 06:32:36;;;;;;;;;;;;;;;-140.72;100.00;52480.16;5013270;28;19922;-70
2022/07/01 06:35:02;;;;;;;;;;;;;;;-140.72;100.00;52482.16;5012595;28;19994;-69
2022/07/01 06:37:27;;;;;;;;;;;;;;;-140.72;100.00;52459.84;5026410;28;19922;-69
2022/07/01 06:39:52;;;;;;;;;;;;;;;-140.72;100.00;52482.16;5025899;28;19925;-68
2022/07/01 06:42:18;;;;;;;;;;;;;;;-140.72;100.00;52474.06;5021013;28;19938;-68
2022/07/01 06:44:43;;;;;;;;;;;;;;;-140.72;100.00;52492.31;5010660;28;19926;-69
2022/07/01 06:47:08;;;;;;;;;;;;;;;-140.72;100.00;52461.88;5008895;28;19917;-68
2022/07/01 06:49:34;;;;;;;;;;;;;;;-140.72;100.00;52480.16;5014596;28;19926;-70
2022/07/01 06:51:59;;;;;;;;;;;;;;;-140.72;100.00;52474.06;5013757;28;19922;-69
2022/07/01 06:54:24;;;;;;;;;;;;;;;-140.72;100.00;52459.84;5024364;28;19921;-69
2022/07/01 06:56:50;;;;;;;;;;;;;;;-140.72;100.00;52435.50;5025686;28;19985;-68
2022/07/01 06:59:15;;;;;;;;;;;;;;;-140.72;100.00;52457.81;5023957;28;19941;-68
2022/07/01 07:01:40;;;;;;;;;;;;;;;-140.72;100.00;52465.94;5019260;28;20383;-68
2022/07/01 07:04:06;;;;;;;;;;;;;;;-140.72;100.00;52419.28;5011929;28;20000;-68
2022/07/01 07:06:31;;;;;;;;;;;;;;;-140.72;100.00;52480.16;5011409;28;19918;-76
2022/07/01 07:08:56;;;;;;;;;;;;;;;-140.72;100.00;52449.72;5023942;28;19941;-72
2022/07/01 07:11:21;;;;;;;;;;;;;;;-140.72;100.00;52447.69;5024762;28;19932;-69
2022/07/01 07:13:47;;;;;;;;;;;;;;;-140.72;100.00;52467.97;5036722;28;19929;-71
2022/07/01 07:16:12;;;;;;;;;;;;;;;-140.72;100.00;52480.16;5026254;28;19933;-70
2022/07/01 07:18:37;;;;;;;;;;;;;;;-140.72;100.00;52443.63;5018452;28;19916;-71
2022/07/01 07:21:03;;;;;;;;;;;;;;;-140.72;100.00;52431.44;5026243;28;19976;-69
2022/07/01 07:23:28;;;;;;;;;;;;;;;-140.72;100.00;52465.94;5029445;28;20049;-70
2022/07/01 07:25:54;;;;;;;;;;;;;;;-140.72;100.00;52419.28;5024613;28;19928;-69
2022/07/01 07:28:19;;;;;;;;;;;;;;;-140.72;100.00;52459.84;5033649;28;19906;-68
2022/07/01 07:30:44;;;;;;;;;;;;;;;-140.72;100.00;52455.78;5034499;28;19932;-70
2022/07/01 07:33:09;;;;;;;;;;;;;;;-140.72;100.00;52431.44;5023993;28;19930;-69
2022/07/01 07:35:34;;;;;;;;;;;;;;;-140.72;100.00;52447.69;5020064;28;19921;-68
2022/07/01 07:38:00;;;;;;;;;;;;;;;-140.72;100.00;52403.03;5026516;28;19922;-69
2022/07/01 07:40:25;;;;;;;;;;;;;;;-140.72;100.00;52455.78;5023953;28;19909;-69
2022/07/01 07:42:50;;;;;;;;;;;;;;;-140.72;100.00;52453.75;5030801;28;20009;-69
2022/07/01 07:45:16;;;;;;;;;;;;;;;-140.72;100.00;52435.50;5030301;28;19929;-69
2022/07/01 07:47:43;;;;;;;;;;;;;;;-140.72;100.00;52463.91;5028714;28;19921;-68
2022/07/01 07:50:08;;;;;;;;;;;;;;;-140.72;100.00;52449.72;5028903;28;19943;-70
2022/07/01 07:52:34;;;;;;;;;;;;;;;-140.72;100.00;52419.28;5022574;28;19928;-77
2022/07/01 07:54:59;;;;;;;;;;;;;;;-140.72;100.00;52423.31;5029856;28;19981;-68
2022/07/01 07:57:24;;;;;;;;;;;;;;;-140.72;100.00;52411.16;5025463;28;19921;-69
2022/07/01 07:59:49;;;;;;;;;;;;;;;-140.72;100.00;52484.19;5033411;28;19932;-69
2022/07/01 08:02:15;;;;;;;;;;;;;;;-140.72;100.00;52431.44;5029307;28;19917;-69
2022/07/01 08:04:40;;;;;;;;;;;;;;;-140.72;100.00;52439.56;5033739;28;19954;-69
2022/07/01 08:07:05;;;;;;;;;;;;;;;-140.72;100.00;52384.78;5023748;28;19921;-71
2022/07/01 08:09:34;;;;;;;;;;;;;;;-140.72;100.00;52372.59;5028803;28;19925;-70
2022/07/01 08:11:59;;;;;;;;;;;;;;;-140.72;100.00;52394.91;5030939;28;19981;-68
2022/07/01 08:14:24;;;;;;;;;;;;;;;-140.72;100.00;52465.94;5027292;28;19947;-70
2022/07/01 08:16:50;;;;;;;;;;;;;;;-140.72;100.00;52461.88;5025508;28;19916;-69
2022/07/01 08:19:15;;;;;;;;;;;;;;;-140.72;100.00;52453.75;5029557;28;19926;-70
2022/07/01 08:21:40;;;;;;;;;;;;;;;-140.72;100.00;52409.13;5027047;28;19928;-69
2022/07/01 08:24:06;;;;;;;;;;;;;;;-140.72;100.00;52394.91;5032781;28;19934;-71
2022/07/01 08:26:31;;;;;;;;;;;;;;;-140.72;100.00;52362.44;5023346;28;19914;-69
2022/07/01 08:28:56;;;;;;;;;;;;;;;-140.72;100.00;52398.97;5030795;28;19984;-68
2022/07/01 08:31:21;;;;;;;;;;;;;;;-140.72;100.00;52370.56;5033057;28;19921;-71
2022/07/01 08:33:46;;;;;;;;;;;;;;;-140.72;100.00;52405.06;5028946;28;19921;-70
2022/07/01 08:36:13;;;;;;;;;;;;;;;-140.72;100.00;52405.06;5023651;28;19922;-70
2022/07/01 08:38:39;;;;;;;;;;;;;;;-140.72;100.00;52382.75;5029609;28;19921;-70
2022/07/01 08:41:04;;;;;;;;;;;;;;;-140.72;100.00;52433.47;5028659;28;19925;-69
2022/07/01 08:43:30;;;;;;;;;;;;;;;-140.72;100.00;52366.50;5024933;28;19926;-72
2022/07/01 08:45:57;;;;;;;;;;;;;;;-140.72;100.00;52323.91;5027188;28;19960;-69
2022/07/01 08:48:22;;;;;;;;;;;;;;;-140.72;100.00;52330.00;5022738;28;19917;-69
2022/07/01 08:50:48;;;;;;;;;;;;;;;-140.72;100.00;52386.81;5025283;28;19928;-68
2022/07/01 08:53:13;;;;;;;;;;;;;;;-140.72;100.00;52354.34;5026663;28;19949;-67
2022/07/01 08:58:25;;;;;;;;;;;;;;;-140.72;100.00;52321.88;5025899;28;19932;-69
2022/07/01 09:00:50;;;;;;;;;;;;;;;-140.72;100.00;52305.63;5026845;28;19918;-70
2022/07/01 09:03:15;;;;;;;;;;;;;;;-140.72;100.00;52356.38;5032061;28;19921;-70
2022/07/01 09:05:47;;;;;;;;;;;;;;;-140.72;100.00;52305.63;5024618;28;19933;-69
2022/07/01 09:08:12;;;;;;;;;;;;;;;-140.72;100.00;52374.63;5023439;28;19909;-69
2022/07/01 09:10:38;;;;;;;;;;;;;;;-140.72;100.00;52334.03;5031864;28;19936;-72
2022/07/01 09:13:05;;;;;;;;;;;;;;;-140.72;100.00;52281.28;5033497;28;20002;-70
2022/07/01 09:15:31;;;;;;;;;;;;;;;-140.72;100.00;52297.53;5030007;28;19917;-71
2022/07/01 09:18:03;;;;;;;;;;;;;;;-140.72;100.00;52263.03;5028843;28;19909;-71
2022/07/01 09:20:29;;;;;;;;;;;;;;;-140.72;100.00;52252.88;5027638;28;19906;-70
2022/07/01 09:23:02;;;;;;;;;;;;;;;-140.72;100.00;52358.41;5020273;28;19971;-70
2022/07/01 09:25:32;;;;;;;;;;;;;;;-140.72;100.00;52360.44;5021849;28;19929;-69
2022/07/01 09:28:05;;;;;;;;;;;;;;;-140.72;100.00;52338.09;5025044;28;19925;-69
2022/07/01 09:30:30;;;;;;;;;;;;;;;-140.72;100.00;52350.28;5031455;28;19913;-70
2022/07/01 09:33:12;;;;;;;;;;;;;;;-140.72;100.00;52291.44;5009160;28;20048;-73
2022/07/01 09:35:38;;;;;;;;;;;;;;;-140.72;100.00;52214.34;5024990;28;19925;-72
2022/07/01 09:38:05;;;;;;;;;;;;;;;-140.72;100.00;52295.50;5024100;28;20466;-73
2022/07/01 09:40:47;;;;;;;;;;;;;;;-140.72;100.00;52279.25;5007610;28;19917;-74
2022/07/01 09:43:20;;;;;;;;;;;;;;;-140.72;100.00;52360.44;5025090;28;20020;-76
2022/07/01 09:46:06;;;;;;;;;;;;;;;-140.72;100.00;52352.31;5018860;28;20263;-76
2022/07/01 09:48:34;;;;;;;;;;;;;;;-140.72;100.00;52348.25;5009942;28;19941;-73
2022/07/01 09:51:00;;;;;;;;;;;;;;;-140.72;100.00;52281.28;5008506;28;19921;-73
2022/07/01 09:53:26;;;;;;;;;;;;;;;-140.72;100.00;52240.72;5003587;28;20021;-72
2022/07/01 09:55:51;;;;;;;;;;;;;;;-140.72;100.00;52200.13;5010697;28;20012;-73
2022/07/01 09:58:16;;;;;;;;;;;;;;;-140.72;100.00;52185.94;5014182;28;19926;-73
2022/07/01 10:00:42;;;;;;;;;;;;;;;-140.72;100.00;52135.19;5011836;28;19918;-70
2022/07/01 10:03:08;;;;;;;;;;;;;;;-140.72;100.00;52204.19;5015465;28;19921;-72
2022/07/01 10:05:37;;;;;;;;;;;;;;;-140.72;100.00;52301.59;5010845;28;19922;-74
2022/07/01 10:08:21;;;;;;;;;;;;;;;-140.72;100.00;52204.19;5011137;28;20288;-73
2022/07/01 10:10:55;;;;;;;;;;;;;;;-140.72;100.00;52161.56;5000032;28;19918;-74
2022/07/01 10:13:24;;;;;;;;;;;;;;;-140.72;100.00;52100.72;4999139;28;19972;-71
2022/07/01 10:15:49;;;;;;;;;;;;;;;-140.72;100.00;52106.78;5003186;28;19976;-73
2022/07/01 10:18:21;;;;;;;;;;;;;;;-140.72;100.00;52171.72;5007317;28;19918;-73
2022/07/01 10:20:48;;;;;;;;;;;;;;;-140.72;100.00;52110.84;4999955;28;19984;-71
2022/07/01 10:23:13;;;;;;;;;;;;;;;-140.72;100.00;52149.41;5008061;28;19922;-70
2022/07/01 10:25:44;;;;;;;;;;;;;;;-140.72;100.00;52064.19;5010961;28;20012;-70
2022/07/01 10:28:17;;;;;;;;;;;;;;;-140.72;100.00;52041.88;5011688;28;19929;-72
2022/07/01 10:30:51;;;;;;;;;;;;;;;-140.72;100.00;52143.31;5014572;28;19967;-70
2022/07/01 10:33:36;;;;;;;;;;;;;;;-140.72;100.00;52210.28;5015006;28;19921;-72
2022/07/01 10:36:05;;;;;;;;;;;;;;;-140.72;100.00;52287.38;5018124;28;19923;-73
2022/07/01 10:38:30;;;;;;;;;;;;;;;-140.72;100.00;52340.13;5015928;28;19921;-72
2022/07/01 10:40:55;;;;;;;;;;;;;;;-140.72;100.00;52277.22;5022322;28;19944;-71
2022/07/01 10:43:33;;;;;;;;;;;;;;;-140.72;100.00;52340.13;5010661;28;20272;-72
2022/07/01 10:45:59;;;;;;;;;;;;;;;-140.72;100.00;52303.59;5012926;28;19991;-73
2022/07/01 10:48:24;;;;;;;;;;;;;;;-140.72;100.00;52179.84;5010247;28;19929;-72
2022/07/01 10:50:50;;;;;;;;;;;;;;;-140.72;100.00;52141.28;5005339;28;19976;-71
2022/07/01 10:53:16;;;;;;;;;;;;;;;-140.72;100.00;52248.81;5008450;28;20011;-72
2022/07/01 10:55:44;;;;;;;;;;;;;;;-140.72;100.00;52163.59;5004984;28;19937;-73
2022/07/01 10:58:10;;;;;;;;;;;;;;;-140.72;100.00;52127.09;5010276;28;19972;-72
2022/07/01 11:00:35;;;;;;;;;;;;;;;-140.72;100.00;52100.72;5011986;28;19921;-69
2022/07/01 11:03:14;;;;;;;;;;;;;;;-140.72;100.00;52163.59;5010298;28;19922;-71
2022/07/01 11:05:41;;;;;;;;;;;;;;;-140.72;100.00;52104.75;5009998;28;19957;-72
2022/07/01 11:08:06;;;;;;;;;;;;;;;-140.72;100.00;52127.09;5007300;28;19926;-76
2022/07/01 11:10:32;;;;;;;;;;;;;;;-140.72;100.00;52242.75;5006672;28;19972;-70
2022/07/01 11:12:58;;;;;;;;;;;;;;;-140.72;100.00;52289.41;5008654;28;19993;-71
2022/07/01 11:15:24;;;;;;;;;;;;;;;-140.72;100.00;52354.34;5013552;28;20286;-70
2022/07/01 11:17:49;;;;;;;;;;;;;;;-140.72;100.00;52334.03;5011538;28;20016;-71
2022/07/01 11:20:15;;;;;;;;;;;;;;;-140.72;100.00;52378.69;5007284;28;19922;-71
2022/07/01 11:22:40;;;;;;;;;;;;;;;-140.72;100.00;52417.25;5003622;28;20358;-72
2022/07/01 11:25:10;;;;;;;;;;;;;;;-140.72;100.00;52407.09;5003624;28;20021;-71
2022/07/01 11:27:36;;;;;;;;;;;;;;;-140.72;100.00;52362.44;5008696;28;19972;-70
2022/07/01 11:30:11;;;;;;;;;;;;;;;-140.72;100.00;52407.09;5013551;28;19922;-71
2022/07/01 11:32:37;;;;;;;;;;;;;;;-140.72;100.00;52376.66;5006286;28;20371;-72
2022/07/01 11:39:21;;;;;;;;;;;;;;;-140.72;100.00;52392.88;5011541;28;19917;-70
2022/07/01 11:40:33;;;;;;;;;;;;;;;-140.72;100.00;52447.69;5013513;28;19924;-70
2022/07/01 11:42:58;;;;;;;;;;;;;;;-140.72;100.00;52478.13;4997136;28;19925;-70
2022/07/01 11:45:24;;;;;;;;;;;;;;;-140.72;100.00;52439.56;5002259;28;20381;-71
2022/07/01 11:47:50;;;;;;;;;;;;;;;-140.72;100.00;52453.75;5001663;28;19953;-70
2022/07/01 11:50:15;;;;;;;;;;;;;;;-140.72;100.00;52447.69;5001017;28;20007;-71
2022/07/01 11:52:41;;;;;;;;;;;;;;;-140.72;100.00;52498.41;5009545;28;19917;-70
2022/07/01 11:55:07;;;;;;;;;;;;;;;-140.72;100.00;52480.16;5014837;28;19918;-71
2022/07/01 11:57:34;;;;;;;;;;;;;;;-140.72;100.00;52459.84;5001330;28;19964;-72
2022/07/01 12:00:08;;;;;;;;;;;;;;;-140.72;100.00;52518.69;4995047;28;19918;-72
2022/07/01 12:02:33;;;;;;;;;;;;;;;-140.72;100.00;52486.22;5004781;28;19964;-72
2022/07/01 12:04:59;;;;;;;;;;;;;;;-140.72;100.00;52478.13;5012037;28;19918;-72
2022/07/01 12:07:25;;;;;;;;;;;;;;;-140.72;100.00;52415.22;5012713;28;19982;-72
2022/07/01 12:09:51;;;;;;;;;;;;;;;-140.72;100.00;52439.56;5001308;28;20390;-71
2022/07/01 12:12:17;;;;;;;;;;;;;;;-140.72;100.00;52431.44;5003059;28;19964;-71
2022/07/01 12:14:48;;;;;;;;;;;;;;;-140.72;100.00;52423.31;5013092;28;19964;-72
2022/07/01 12:17:15;;;;;;;;;;;;;;;-140.72;100.00;52398.97;5011260;28;19922;-70
2022/07/01 12:19:41;;;;;;;;;;;;;;;-140.72;100.00;52423.31;5012140;28;19924;-72
2022/07/01 12:22:11;;;;;;;;;;;;;;;-140.72;100.00;52411.16;5001687;28;20043;-71
2022/07/01 12:24:36;;;;;;;;;;;;;;;-140.72;100.00;52273.19;5009162;28;19965;-70
2022/07/01 12:27:08;;;;;;;;;;;;;;;-140.72;100.00;52252.88;5013575;28;19980;-70